Terminal Aerodrome Forecast
Issued by NWS Charleston, WV

Current Version | Previous Version | Graphics & Text | Print | Product List | Glossary On
Versions: 1 2 3 4 5 6 7 8 9 10 11 12 13 14 15 16 17 18 19 20 21 22 23
000
FTUS41 KRLX 301100 RRA
TAFEKN
TAF
KEKN 301147Z 3012/0112 00000KT P6SM BKN060
      TEMPO 3012/3014 6SM -SHRA
     FM301500 30007KT P6SM BKN040
     FM301800 31007KT 6SM -SHRA BKN040
     FM302200 01004KT 5SM -SHRA OVC040
     FM010100 VRB03KT 5SM -SHRA BR OVC030
     FM010600 33004KT 3SM BR OVC014=

USA.gov is the U.S. government's official web portal to all federal, state and local government web resources and services.